Terminal Aerodrome Forecast
Issued by NWS Brownsville, TX

Home | Current Version | Previous Version | Text Only | Print | Product List | Glossary On
Versions: 1 2 3 4 5 6 7 8 9 10 11 12 13 14
715
FTUS44 KBRO 232328
TAFBRO
TAF
KBRO 232328Z 2400/2424 12010KT P6SM SKC
     FM240500 13005KT P6SM FEW025
     FM241400 14013G18KT P6SM SCT060=

USA.gov is the U.S. government's official web portal to all federal, state and local government web resources and services.